Time,TemperatureF,DewpointF,PressureIn,WindDirection,WindDirectionDegrees,WindSpeedMPH,WindSpeedGustMPH,Humidity,HourlyPrecipIn,Conditions,Clouds,dailyrainin,SoftwareType,DateUTC
2013-08-02 00:02:00,62.7,60.0,29.81,SW,216,0.0,-999.0,91,-99.99,,,0.15,weatherlink.com 1.10,2013-08-02 04:02:00,
2013-08-02 00:17:00,62.9,60.0,29.80,SW,216,0.0,-999.0,91,-99.99,,,0.15,weatherlink.com 1.10,2013-08-02 04:17:00,
2013-08-02 00:32:00,63.2,61.0,29.80,SW,216,0.0,-999.0,91,-99.99,,,0.00,weatherlink.com 1.10,2013-08-02 04:32:00,
2013-08-02 00:47:00,62.9,60.0,29.79,WSW,246,0.0,-999.0,91,-99.99,,,0.00,weatherlink.com 1.10,2013-08-02 04:47:00,
2013-08-02 01:02:00,63.2,61.0,29.78,SSW,208,0.0,-999.0,91,-99.99,,,0.00,weatherlink.com 1.10,2013-08-02 05:02:00,
2013-08-02 01:17:00,63.2,61.0,29.77,SSW,206,0.0,-999.0,91,-99.99,,,0.00,weatherlink.com 1.10,2013-08-02 05:17:00,
2013-08-02 01:32:00,63.5,61.0,29.77,SSW,206,0.0,-999.0,92,-99.99,,,0.00,weatherlink.com 1.10,2013-08-02 05:32:00,
2013-08-02 01:47:00,63.7,61.0,29.75,SSW,206,0.0,-999.0,91,-99.99,,,0.00,weatherlink.com 1.10,2013-08-02 05:47:00,
2013-08-02 02:02:00,63.5,61.0,29.75,SSW,206,0.0,-999.0,92,-99.99,,,0.00,weatherlink.com 1.10,2013-08-02 06:02:00,
2013-08-02 02:17:00,63.5,61.0,29.74,SSW,206,0.0,-999.0,92,-99.99,,,0.00,weatherlink.com 1.10,2013-08-02 06:17:00,
2013-08-02 02:32:00,63.5,61.0,29.73,SSW,206,1.0,-999.0,92,-99.99,,,0.00,weatherlink.com 1.10,2013-08-02 06:32:00,
2013-08-02 02:47:00,63.7,61.0,29.73,South,175,3.0,-999.0,92,-99.99,,,0.00,weatherlink.com 1.10,2013-08-02 06:47:00,
2013-08-02 03:02:00,63.5,61.0,29.72,South,173,0.0,-999.0,92,-99.99,,,0.00,weatherlink.com 1.10,2013-08-02 07:02:00,
2013-08-02 03:17:00,63.5,61.0,29.72,South,173,0.0,-999.0,92,-99.99,,,0.00,weatherlink.com 1.10,2013-08-02 07:17:00,
2013-08-02 03:32:00,63.5,61.0,29.72,SSE,166,0.0,-999.0,91,-99.99,,,0.00,weatherlink.com 1.10,2013-08-02 07:32:00,
2013-08-02 03:47:00,63.7,61.0,29.73,SSE,166,0.0,-999.0,92,-99.99,,,0.00,weatherlink.com 1.10,2013-08-02 07:47:00,
2013-08-02 04:02:00,63.9,62.0,29.72,SSE,166,0.0,-999.0,92,-99.99,,,0.00,weatherlink.com 1.10,2013-08-02 08:02:00,
2013-08-02 04:17:00,63.9,62.0,29.72,South,182,2.0,-999.0,92,-99.99,,,0.00,weatherlink.com 1.10,2013-08-02 08:17:00,
2013-08-02 04:33:00,64.3,62.0,29.71,South,184,3.0,-999.0,92,-99.99,,,0.00,weatherlink.com 1.10,2013-08-02 08:33:00,
2013-08-02 04:48:00,64.7,62.0,29.72,SE,144,0.0,-999.0,92,-99.99,,,0.00,weatherlink.com 1.10,2013-08-02 08:48:00,
2013-08-02 05:03:00,65.0,63.0,29.72,SSE,147,0.0,-999.0,92,-99.99,,,0.00,weatherlink.com 1.10,2013-08-02 09:03:00,
2013-08-02 05:18:00,65.3,63.0,29.72,SSE,149,0.0,-999.0,92,-99.99,,,0.00,weatherlink.com 1.10,2013-08-02 09:18:00,
2013-08-02 05:33:00,65.5,63.0,29.72,SSE,149,0.0,-999.0,92,-99.99,,,0.00,weatherlink.com 1.10,2013-08-02 09:33:00,
2013-08-02 05:48:00,65.6,63.0,29.71,SSE,149,0.0,-999.0,92,-99.99,,,0.00,weatherlink.com 1.10,2013-08-02 09:48:00,
2013-08-02 06:03:00,65.8,64.0,29.71,SSE,149,0.0,-999.0,92,-99.99,,,0.00,weatherlink.com 1.10,2013-08-02 10:03:00,
2013-08-02 06:18:00,66.1,64.0,29.71,SSE,150,2.0,-999.0,92,-99.99,,,0.00,weatherlink.com 1.10,2013-08-02 10:18:00,
2013-08-02 06:33:00,66.3,64.0,29.72,SW,226,0.0,-999.0,92,-99.99,,,0.00,weatherlink.com 1.10,2013-08-02 10:33:00,
2013-08-02 06:48:00,66.6,64.0,29.72,SW,230,0.0,-999.0,92,-99.99,,,0.09,weatherlink.com 1.10,2013-08-02 10:48:00,
2013-08-02 07:03:00,66.6,65.0,29.72,SSW,195,0.0,-999.0,93,-99.99,,,0.16,weatherlink.com 1.10,2013-08-02 11:03:00,
2013-08-02 07:18:00,66.4,64.0,29.72,SSW,195,0.0,-999.0,93,-99.99,,,0.30,weatherlink.com 1.10,2013-08-02 11:18:00,
2013-08-02 07:33:00,66.4,64.0,29.73,SW,221,4.0,-999.0,93,-99.99,,,0.45,weatherlink.com 1.10,2013-08-02 11:33:00,
2013-08-02 07:48:00,66.4,64.0,29.72,SW,225,2.0,-999.0,93,-99.99,,,0.72,weatherlink.com 1.10,2013-08-02 11:48:00,
2013-08-02 08:03:00,66.6,65.0,29.73,South,177,3.0,-999.0,93,-99.99,,,0.76,weatherlink.com 1.10,2013-08-02 12:03:00,
2013-08-02 08:18:00,66.8,65.0,29.73,SSW,209,0.0,-999.0,93,-99.99,,,0.76,weatherlink.com 1.10,2013-08-02 12:18:00,
2013-08-02 08:33:00,67.3,66.0,29.73,SSW,211,0.0,-999.0,94,-99.99,,,0.77,weatherlink.com 1.10,2013-08-02 12:33:00,
2013-08-02 08:48:00,67.8,66.0,29.73,SSW,208,2.0,-999.0,94,-99.99,,,0.77,weatherlink.com 1.10,2013-08-02 12:48:00,
2013-08-02 09:03:00,67.9,66.0,29.73,SSW,209,0.0,-999.0,94,-99.99,,,0.77,weatherlink.com 1.10,2013-08-02 13:03:00,
2013-08-02 09:18:00,67.9,66.0,29.73,West,262,2.0,-999.0,94,-99.99,,,0.77,weatherlink.com 1.10,2013-08-02 13:18:00,
2013-08-02 09:33:00,68.1,66.0,29.73,SW,226,0.0,-999.0,94,-99.99,,,0.78,weatherlink.com 1.10,2013-08-02 13:33:00,
2013-08-02 09:48:00,68.4,66.0,29.73,SW,233,0.0,-999.0,93,-99.99,,,0.78,weatherlink.com 1.10,2013-08-02 13:48:00,
2013-08-02 10:03:00,68.4,67.0,29.73,WSW,239,0.0,-999.0,94,-99.99,,,0.78,weatherlink.com 1.10,2013-08-02 14:03:00,
2013-08-02 10:18:00,68.8,67.0,29.73,WSW,242,0.0,-999.0,94,-99.99,,,0.78,weatherlink.com 1.10,2013-08-02 14:18:00,
2013-08-02 10:33:00,68.8,67.0,29.73,SW,236,2.0,-999.0,94,-99.99,,,0.79,weatherlink.com 1.10,2013-08-02 14:33:00,
2013-08-02 10:48:00,69.3,68.0,29.72,WSW,238,0.0,-999.0,94,-99.99,,,0.79,weatherlink.com 1.10,2013-08-02 14:48:00,
2013-08-02 11:03:00,70.1,68.0,29.73,WSW,242,1.0,-999.0,94,-99.99,,,0.79,weatherlink.com 1.10,2013-08-02 15:03:00,
2013-08-02 11:18:00,71.1,69.0,29.73,SW,230,0.0,-999.0,94,-99.99,,,0.79,weatherlink.com 1.10,2013-08-02 15:18:00,
2013-08-02 11:33:00,71.5,69.0,29.73,NE,40,0.0,-999.0,93,-99.99,,,0.79,weatherlink.com 1.10,2013-08-02 15:33:00,
2013-08-02 11:48:00,72.3,68.0,29.73,North,6,6.0,-999.0,86,-99.99,,,0.79,weatherlink.com 1.10,2013-08-02 15:48:00,
2013-08-02 12:04:00,73.2,66.0,29.73,NNE,13,5.0,-999.0,78,-99.99,,,0.79,weatherlink.com 1.10,2013-08-02 16:04:00,
2013-08-02 12:18:00,74.6,65.0,29.73,NNE,23,2.0,-999.0,71,-99.99,,,0.79,weatherlink.com 1.10,2013-08-02 16:18:00,
2013-08-02 12:34:00,76.0,65.0,29.73,NNE,13,1.0,-999.0,69,-99.99,,,0.79,weatherlink.com 1.10,2013-08-02 16:34:00,
2013-08-02 12:49:00,77.2,64.0,29.73,NNE,16,2.0,-999.0,64,-99.99,,,0.79,weatherlink.com 1.10,2013-08-02 16:49:00,
2013-08-02 13:04:00,78.6,64.0,29.72,West,270,6.0,-999.0,61,-99.99,,,0.79,weatherlink.com 1.10,2013-08-02 17:04:00,
2013-08-02 13:19:00,79.2,64.0,29.72,NE,54,2.0,-999.0,60,-99.99,,,0.79,weatherlink.com 1.10,2013-08-02 17:19:00,
2013-08-02 13:34:00,79.8,64.0,29.72,NNW,348,10.0,-999.0,59,-99.99,,,0.79,weatherlink.com 1.10,2013-08-02 17:34:00,
2013-08-02 13:49:00,79.6,64.0,29.72,WNW,294,5.0,-999.0,59,-99.99,,,0.79,weatherlink.com 1.10,2013-08-02 17:49:00,
2013-08-02 14:04:00,79.8,63.0,29.72,NNW,329,2.0,-999.0,56,-99.99,,,0.79,weatherlink.com 1.10,2013-08-02 18:04:00,
2013-08-02 14:19:00,80.7,62.0,29.72,NW,314,4.0,-999.0,54,-99.99,,,0.79,weatherlink.com 1.10,2013-08-02 18:19:00,
2013-08-02 14:34:00,80.5,62.0,29.72,NNE,17,0.0,-999.0,54,-99.99,,,0.79,weatherlink.com 1.10,2013-08-02 18:34:00,
2013-08-02 14:49:00,82.0,60.0,29.72,WNW,283,6.0,-999.0,48,-99.99,,,0.79,weatherlink.com 1.10,2013-08-02 18:49:00,
2013-08-02 15:04:00,82.2,62.0,29.71,NNW,332,7.0,-999.0,51,-99.99,,,0.79,weatherlink.com 1.10,2013-08-02 19:04:00,
2013-08-02 15:19:00,82.4,62.0,29.71,NW,319,0.0,-999.0,51,-99.99,,,0.79,weatherlink.com 1.10,2013-08-02 19:19:00,
2013-08-02 15:34:00,83.2,61.0,29.71,NNE,20,3.0,-999.0,48,-99.99,,,0.79,weatherlink.com 1.10,2013-08-02 19:34:00,
2013-08-02 15:49:00,81.6,60.0,29.72,NW,308,0.0,-999.0,48,-99.99,,,0.79,weatherlink.com 1.10,2013-08-02 19:49:00,
2013-08-02 16:04:00,81.1,61.0,29.72,NNE,17,0.0,-999.0,51,-99.99,,,0.79,weatherlink.com 1.10,2013-08-02 20:04:00,
2013-08-02 16:19:00,82.2,59.0,29.72,NNE,19,1.0,-999.0,46,-99.99,,,0.79,weatherlink.com 1.10,2013-08-02 20:19:00,
2013-08-02 16:34:00,81.8,60.0,29.72,NNW,338,6.0,-999.0,47,-99.99,,,0.79,weatherlink.com 1.10,2013-08-02 20:34:00,
2013-08-02 16:49:00,81.8,58.0,29.71,North,3,1.0,-999.0,45,-99.99,,,0.79,weatherlink.com 1.10,2013-08-02 20:49:00,
2013-08-02 17:04:00,82.0,60.0,29.71,NNE,12,0.0,-999.0,47,-99.99,,,0.79,weatherlink.com 1.10,2013-08-02 21:04:00,
2013-08-02 17:19:00,82.4,60.0,29.71,North,10,0.0,-999.0,46,-99.99,,,0.79,weatherlink.com 1.10,2013-08-02 21:19:00,
2013-08-02 17:34:00,82.0,59.0,29.71,NW,322,5.0,-999.0,46,-99.99,,,0.79,weatherlink.com 1.10,2013-08-02 21:34:00,
2013-08-02 17:49:00,81.4,57.0,29.72,NNW,338,6.0,-999.0,44,-99.99,,,0.79,weatherlink.com 1.10,2013-08-02 21:49:00,
2013-08-02 18:04:00,81.1,60.0,29.73,NNW,341,0.0,-999.0,48,-99.99,,,0.79,weatherlink.com 1.10,2013-08-02 22:04:00,
2013-08-02 18:19:00,81.1,60.0,29.73,NW,314,0.0,-999.0,49,-99.99,,,0.79,weatherlink.com 1.10,2013-08-02 22:19:00,
2013-08-02 18:34:00,79.6,60.0,29.73,NW,312,0.0,-999.0,51,-99.99,,,0.79,weatherlink.com 1.10,2013-08-02 22:34:00,
2013-08-02 18:49:00,79.0,60.0,29.73,NNW,342,0.0,-999.0,53,-99.99,,,0.79,weatherlink.com 1.10,2013-08-02 22:49:00,
2013-08-02 19:04:00,78.3,61.0,29.74,WNW,290,0.0,-999.0,56,-99.99,,,0.79,weatherlink.com 1.10,2013-08-02 23:04:00,
2013-08-02 19:19:00,77.6,62.0,29.74,WNW,290,0.0,-999.0,59,-99.99,,,0.79,weatherlink.com 1.10,2013-08-02 23:19:00,
2013-08-02 19:34:00,76.7,63.0,29.74,WNW,291,0.0,-999.0,62,-99.99,,,0.79,weatherlink.com 1.10,2013-08-02 23:34:00,
2013-08-02 19:49:00,76.0,64.0,29.75,WSW,257,0.0,-999.0,66,-99.99,,,0.79,weatherlink.com 1.10,2013-08-02 23:49:00,
2013-08-02 20:04:00,75.1,64.0,29.75,West,278,0.0,-999.0,68,-99.99,,,0.79,weatherlink.com 1.10,2013-08-03 00:04:00,
2013-08-02 20:19:00,74.4,64.0,29.76,SW,228,0.0,-999.0,70,-99.99,,,0.79,weatherlink.com 1.10,2013-08-03 00:19:00,
2013-08-02 20:34:00,73.7,64.0,29.76,SW,219,0.0,-999.0,71,-99.99,,,0.79,weatherlink.com 1.10,2013-08-03 00:34:00,
2013-08-02 20:49:00,73.2,63.0,29.76,NNW,334,0.0,-999.0,71,-99.99,,,0.79,weatherlink.com 1.10,2013-08-03 00:49:00,
2013-08-02 21:04:00,72.3,63.0,29.77,NNW,328,0.0,-999.0,73,-99.99,,,0.79,weatherlink.com 1.10,2013-08-03 01:04:00,
2013-08-02 21:19:00,71.6,63.0,29.78,West,278,0.0,-999.0,74,-99.99,,,0.79,weatherlink.com 1.10,2013-08-03 01:19:00,
2013-08-02 21:34:00,70.9,63.0,29.78,West,259,0.0,-999.0,76,-99.99,,,0.79,weatherlink.com 1.10,2013-08-03 01:34:00,
2013-08-02 21:49:00,70.4,63.0,29.79,NW,307,0.0,-999.0,77,-99.99,,,0.79,weatherlink.com 1.10,2013-08-03 01:49:00,
2013-08-02 22:04:00,70.3,64.0,29.79,West,267,0.0,-999.0,79,-99.99,,,0.79,weatherlink.com 1.10,2013-08-03 02:04:00,
2013-08-02 22:19:00,69.8,63.0,29.79,WSW,257,0.0,-999.0,80,-99.99,,,0.79,weatherlink.com 1.10,2013-08-03 02:19:00,
2013-08-02 22:34:00,69.6,64.0,29.79,NW,304,0.0,-999.0,81,-99.99,,,0.79,weatherlink.com 1.10,2013-08-03 02:34:00,
2013-08-02 22:49:00,69.3,64.0,29.79,WSW,252,0.0,-999.0,82,-99.99,,,0.79,weatherlink.com 1.10,2013-08-03 02:49:00,
2013-08-02 23:04:00,69.1,64.0,29.79,WSW,252,0.0,-999.0,83,-99.99,,,0.79,weatherlink.com 1.10,2013-08-03 03:04:00,
2013-08-02 23:19:00,68.8,64.0,29.79,WSW,252,0.0,-999.0,84,-99.99,,,0.79,weatherlink.com 1.10,2013-08-03 03:19:00,
2013-08-02 23:34:00,68.4,63.0,29.79,WSW,252,0.0,-999.0,84,-99.99,,,0.79,weatherlink.com 1.10,2013-08-03 03:34:00,
2013-08-02 23:49:00,68.4,63.0,29.79,WSW,252,0.0,-999.0,84,-99.99,,,0.79,weatherlink.com 1.10,2013-08-03 03:49:00,